Time;durP1;ratioP1;P1;durP2;ratioP2;P2;SDS_P1;SDS_P2;PMS_P1;PMS_P2;Temp;Humidity;BMP_temperature;BMP_pressure;BME280_temperature;BME280_humidity;BME280_pressure;Samples;Min_cycle;Max_cycle;Signal;HPM_P1;HPM_P2
2023/05/20 00:01:19;;;;;;;12.40;8.40;;;;;;;12.68;100.00;101567.05;105700;1253;68563;-42
2023/05/20 00:03:46;;;;;;;17.40;8.10;;;;;;;12.69;100.00;101567.73;105627;1254;74841;-42
2023/05/20 00:06:13;;;;;;;19.30;8.00;;;;;;;12.72;100.00;101574.13;105635;1256;63450;-42
2023/05/20 00:08:41;;;;;;;18.00;7.90;;;;;;;12.72;100.00;101576.73;105656;1258;62781;-43
2023/05/20 00:11:08;;;;;;;14.20;7.00;;;;;;;12.71;100.00;101572.58;105644;1253;73228;-43
2023/05/20 00:13:35;;;;;;;11.20;7.30;;;;;;;12.70;100.00;101566.34;105678;1258;67179;-42
2023/05/20 00:16:03;;;;;;;15.60;7.40;;;;;;;12.69;100.00;101567.05;105641;1259;74913;-45
2023/05/20 00:18:31;;;;;;;19.30;8.20;;;;;;;12.68;100.00;101567.41;105728;1255;62572;-44
2023/05/20 00:20:58;;;;;;;15.90;7.00;;;;;;;12.67;100.00;101569.85;105641;1255;61701;-41
2023/05/20 00:23:26;;;;;;;19.60;7.20;;;;;;;12.65;100.00;101567.09;105645;1258;73594;-43
2023/05/20 00:25:53;;;;;;;13.80;7.00;;;;;;;12.62;100.00;101561.23;105634;1253;67892;-42
2023/05/20 00:28:22;;;;;;;14.10;7.90;;;;;;;12.57;100.00;101554.00;105663;1254;73869;-43
2023/05/20 00:30:49;;;;;;;15.40;7.10;;;;;;;12.53;100.00;101542.11;105711;1253;62788;-43
2023/05/20 00:33:16;;;;;;;12.00;7.40;;;;;;;12.49;100.00;101518.75;105677;1258;61828;-44
2023/05/20 00:35:44;;;;;;;16.00;7.70;;;;;;;12.46;100.00;101494.55;105653;1253;74789;-43
2023/05/20 00:38:12;;;;;;;10.90;7.40;;;;;;;12.41;100.00;101466.91;105684;1258;68173;-44
2023/05/20 00:40:39;;;;;;;13.40;7.30;;;;;;;12.37;100.00;101440.27;105607;1255;75482;-43
2023/05/20 00:43:06;;;;;;;17.20;7.20;;;;;;;12.34;100.00;101410.38;105434;1257;64535;-46
2023/05/20 00:45:33;;;;;;;15.00;7.10;;;;;;;12.32;100.00;101393.10;105672;1253;62966;-43
2023/05/20 00:48:02;;;;;;;12.20;7.90;;;;;;;12.29;100.00;101385.86;105653;1253;74859;-43
2023/05/20 00:50:30;;;;;;;15.50;8.70;;;;;;;12.27;100.00;101392.98;105713;1258;67628;-43
2023/05/20 00:52:58;;;;;;;22.30;8.00;;;;;;;12.27;100.00;101411.50;105664;1253;75469;-42
2023/05/20 00:55:25;;;;;;;13.60;7.50;;;;;;;12.27;100.00;101439.70;105667;1260;64531;-43
2023/05/20 00:57:52;;;;;;;24.70;7.80;;;;;;;12.28;100.00;101462.53;105645;1258;60242;-43
2023/05/20 01:00:19;;;;;;;14.40;7.60;;;;;;;12.32;100.00;101485.33;105629;1254;74497;-42
2023/05/20 01:02:46;;;;;;;13.80;7.30;;;;;;;12.37;100.00;101515.23;105687;1258;67644;-43
2023/05/20 01:05:14;;;;;;;14.00;7.90;;;;;;;12.40;100.00;101535.13;105622;1259;75244;-43
2023/05/20 01:07:42;;;;;;;24.10;7.90;;;;;;;12.41;100.00;101541.67;105690;1254;62984;-43
2023/05/20 01:10:10;;;;;;;18.10;7.50;;;;;;;12.41;100.00;101544.80;105659;1253;62306;-43
2023/05/20 01:12:42;;;;;;;15.00;8.80;;;;;;;12.41;100.00;101538.92;105672;1253;75149;-43
2023/05/20 01:15:11;;;;;;;15.70;7.50;;;;;;;12.42;100.00;101531.98;105684;1260;67699;-43
2023/05/20 01:17:46;;;;;;;14.00;7.20;;;;;;;12.43;100.00;101525.05;105667;1253;74916;-42
2023/05/20 01:20:14;;;;;;;17.90;7.70;;;;;;;12.46;100.00;101507.20;105639;1260;63383;-43
2023/05/20 01:22:48;;;;;;;15.20;7.10;;;;;;;12.46;100.00;101491.77;105712;1254;62780;-43
2023/05/20 01:25:16;;;;;;;14.10;7.00;;;;;;;12.47;100.00;101469.77;105679;1253;75017;-43
2023/05/20 01:27:46;;;;;;;12.50;7.10;;;;;;;12.46;100.00;101448.16;105696;1254;67953;-43
2023/05/20 01:30:14;;;;;;;17.80;7.90;;;;;;;12.45;100.00;101429.81;105660;1254;74587;-45
2023/05/20 01:32:49;;;;;;;14.20;6.70;;;;;;;12.45;100.00;101413.38;105674;1254;63632;-41
2023/05/20 01:35:17;;;;;;;16.20;7.20;;;;;;;12.41;100.00;101399.23;105658;1253;61498;-42
2023/05/20 01:37:45;;;;;;;11.40;7.30;;;;;;;12.37;100.00;101389.22;105707;1259;75960;-42
2023/05/20 01:40:14;;;;;;;14.00;7.90;;;;;;;12.35;100.00;101383.19;105635;1253;67515;-42
2023/05/20 01:42:42;;;;;;;21.00;7.20;;;;;;;12.34;100.00;101379.73;105680;1256;75464;-42
2023/05/20 01:45:10;;;;;;;16.40;7.50;;;;;;;12.34;100.00;101381.81;105622;1260;62423;-42
2023/05/20 01:47:37;;;;;;;24.80;7.10;;;;;;;12.36;100.00;101387.67;105701;1258;61536;-42
2023/05/20 01:50:06;;;;;;;23.00;8.40;;;;;;;12.39;100.00;101389.89;105665;1253;76633;-43
2023/05/20 01:52:33;;;;;;;20.10;7.80;;;;;;;12.41;100.00;101389.18;105666;1254;66945;-42
2023/05/20 01:55:01;;;;;;;19.50;7.90;;;;;;;12.44;100.00;101385.52;105637;1253;74193;-42
2023/05/20 01:57:28;;;;;;;21.50;8.10;;;;;;;12.47;100.00;101383.23;105649;1254;64296;-42
2023/05/20 01:59:56;;;;;;;11.90;7.60;;;;;;;12.47;100.00;101382.20;105662;1258;62044;-42
2023/05/20 02:02:23;;;;;;;12.20;7.50;;;;;;;12.45;100.00;101382.05;105633;1254;75545;-43
2023/05/20 02:04:50;;;;;;;18.40;7.70;;;;;;;12.44;100.00;101383.09;105635;1253;66464;-44
2023/05/20 02:07:18;;;;;;;17.50;6.90;;;;;;;12.43;100.00;101384.31;105434;1254;73909;-42
2023/05/20 02:09:45;;;;;;;10.80;7.50;;;;;;;12.43;100.00;101383.63;105649;1259;63392;-44
2023/05/20 02:12:15;;;;;;;15.80;7.20;;;;;;;12.44;100.00;101385.34;105674;1254;62057;-42
2023/05/20 02:14:44;;;;;;;13.00;7.80;;;;;;;12.44;100.00;101385.52;105625;1253;75616;-42
2023/05/20 02:17:15;;;;;;;13.90;7.50;;;;;;;12.45;100.00;101385.15;105705;1254;67903;-42
2023/05/20 02:19:43;;;;;;;16.50;7.30;;;;;;;12.47;100.00;101390.14;105662;1257;74285;-42
2023/05/20 02:22:10;;;;;;;17.80;7.30;;;;;;;12.48;100.00;101385.45;105661;1254;63486;-42
2023/05/20 02:24:37;;;;;;;16.20;7.50;;;;;;;12.47;100.00;101386.69;105653;1254;62651;-42
2023/05/20 02:27:05;;;;;;;13.60;7.80;;;;;;;12.44;100.00;101386.72;105614;1258;76091;-42
2023/05/20 02:29:32;;;;;;;17.90;7.20;;;;;;;12.42;100.00;101391.24;105678;1258;66926;-42
2023/05/20 02:31:59;;;;;;;21.10;7.90;;;;;;;12.40;100.00;101395.95;105654;1253;75353;-42
2023/05/20 02:34:28;;;;;;;16.90;8.60;;;;;;;12.39;100.00;101397.86;105614;1253;62886;-42
2023/05/20 02:36:56;;;;;;;24.70;7.30;;;;;;;12.39;100.00;101404.80;105662;1258;63199;-42
2023/05/20 02:39:24;;;;;;;15.30;7.70;;;;;;;12.39;100.00;101404.80;105708;1253;74779;-42
2023/05/20 02:41:51;;;;;;;18.60;7.90;;;;;;;12.40;100.00;101409.28;105669;1253;67467;-42
2023/05/20 02:44:18;;;;;;;15.10;7.70;;;;;;;12.41;100.00;101411.86;105648;1258;75599;-42
2023/05/20 02:46:47;;;;;;;17.50;8.00;;;;;;;12.43;100.00;101418.59;105664;1253;62679;-42
2023/05/20 02:49:14;;;;;;;16.10;7.90;;;;;;;12.48;100.00;101427.70;105632;1258;61546;-42
2023/05/20 02:51:41;;;;;;;21.90;8.40;;;;;;;12.51;100.00;101435.98;105656;1253;76348;-43
2023/05/20 02:54:08;;;;;;;18.70;8.40;;;;;;;12.55;100.00;101442.35;105621;1255;66819;-42
2023/05/20 02:56:36;;;;;;;20.90;9.50;;;;;;;12.59;100.00;101446.98;105646;1258;75445;-42
2023/05/20 02:59:03;;;;;;;27.80;9.20;;;;;;;12.66;100.00;101453.30;105654;1258;61573;-42
2023/05/20 03:01:32;;;;;;;21.70;9.20;;;;;;;12.74;100.00;101460.66;105649;1253;63073;-42
2023/05/20 03:04:01;;;;;;;12.70;7.80;;;;;;;12.82;100.00;101470.98;105648;1259;76001;-43
2023/05/20 03:06:31;;;;;;;18.50;8.40;;;;;;;12.90;100.00;101470.87;105710;1258;67742;-43
2023/05/20 03:08:58;;;;;;;20.70;8.80;;;;;;;12.99;100.00;101475.45;105532;1257;74308;-43
2023/05/20 03:11:25;;;;;;;20.70;8.90;;;;;;;13.07;100.00;101476.39;105445;1258;60498;-44
2023/05/20 03:13:52;;;;;;;17.10;8.70;;;;;;;13.14;100.00;101480.81;105668;1253;62760;-45
2023/05/20 03:16:19;;;;;;;16.50;9.20;;;;;;;13.21;100.00;101480.02;105674;1253;75348;-43
2023/05/20 03:18:47;;;;;;;29.00;8.70;;;;;;;13.28;100.00;101475.95;105689;1254;66709;-41
2023/05/20 03:21:15;;;;;;;16.90;7.90;;;;;;;13.36;100.00;101473.06;105648;1258;75473;-42
2023/05/20 03:23:42;;;;;;;21.60;8.30;;;;;;;13.42;100.00;101467.96;105622;1258;61648;-42
2023/05/20 03:26:10;;;;;;;17.90;8.60;;;;;;;13.50;100.00;101464.05;105660;1258;62264;-42
2023/05/20 03:28:37;;;;;;;16.80;7.90;;;;;;;13.59;100.00;101458.89;105671;1254;75609;-42
2023/05/20 03:31:05;;;;;;;19.50;8.40;;;;;;;13.70;100.00;101454.23;105723;1253;68479;-42
2023/05/20 03:33:33;;;;;;;12.00;7.00;;;;;;;13.80;100.00;101439.14;105656;1256;73568;-42
2023/05/20 03:36:01;;;;;;;19.30;7.70;;;;;;;13.90;100.00;101437.59;105689;1253;61076;-43
2023/05/20 03:38:29;;;;;;;16.70;7.90;;;;;;;14.02;100.00;101427.69;105654;1258;62072;-42
2023/05/20 03:40:57;;;;;;;12.00;7.20;;;;;;;14.15;100.00;101421.03;105686;1253;75290;-42
2023/05/20 03:43:24;;;;;;;19.70;7.40;;;;;;;14.30;100.00;101404.09;105687;1258;67086;-42
2023/05/20 03:45:52;;;;;;;14.20;6.60;;;;;;;14.47;100.00;101393.52;105718;1254;74617;-43
2023/05/20 03:48:19;;;;;;;19.50;7.40;;;;;;;14.67;100.00;101373.85;105701;1254;61832;-43
2023/05/20 03:50:48;;;;;;;14.10;7.20;;;;;;;14.88;100.00;101349.78;105687;1253;63375;-44
2023/05/20 03:53:16;;;;;;;12.20;6.60;;;;;;;15.14;100.00;101321.39;105697;1258;76160;-44
2023/05/20 03:55:43;;;;;;;16.30;6.50;;;;;;;15.42;100.00;101279.85;105670;1259;66985;-43
2023/05/20 03:58:12;;;;;;;16.30;6.60;;;;;;;15.72;100.00;101233.14;105661;1258;75431;-44
2023/05/20 04:00:40;;;;;;;12.90;7.50;;;;;;;16.01;100.00;101173.54;105696;1253;61388;-43
2023/05/20 04:03:07;;;;;;;15.20;7.20;;;;;;;16.28;100.00;101098.69;105699;1253;61835;-43
2023/05/20 04:05:35;;;;;;;11.10;6.30;;;;;;;16.52;100.00;101029.99;105715;1253;76112;-42
2023/05/20 04:08:04;;;;;;;18.60;6.90;;;;;;;16.71;100.00;100965.92;105725;1253;68312;-42
2023/05/20 04:10:32;;;;;;;16.10;6.90;;;;;;;16.85;100.00;100924.14;105673;1255;75438;-42
2023/05/20 04:12:59;;;;;;;12.40;6.90;;;;;;;16.96;100.00;100899.30;105637;1256;61923;-42
2023/05/20 04:15:28;;;;;;;11.80;7.40;;;;;;;17.09;100.00;100892.38;105643;1258;61442;-42
2023/05/20 04:17:56;;;;;;;22.90;7.40;;;;;;;17.21;100.00;100886.68;105604;1260;76792;-42
2023/05/20 04:20:24;;;;;;;10.30;7.00;;;;;;;17.33;100.00;100888.15;105625;1253;68382;-42
2023/05/20 04:22:54;;;;;;;19.50;6.50;;;;;;;17.48;100.00;100889.46;105653;1255;75513;-42
2023/05/20 04:25:22;;;;;;;15.30;7.10;;;;;;;17.60;100.00;100893.34;105624;1258;62746;-42
2023/05/20 04:27:52;;;;;;;9.80;6.70;;;;;;;17.69;100.00;100892.48;105658;1254;63222;-43
2023/05/20 04:30:20;;;;;;;13.20;7.00;;;;;;;17.72;100.00;100898.96;105676;1253;76776;-42
2023/05/20 04:32:49;;;;;;;18.00;7.30;;;;;;;17.69;100.00;100907.81;105667;1255;65680;-42
2023/05/20 04:35:17;;;;;;;15.20;7.70;;;;;;;17.64;100.00;100911.14;105680;1253;75035;-42
2023/05/20 04:37:48;;;;;;;16.30;7.00;;;;;;;17.56;100.00;100914.80;105608;1254;64907;-42
2023/05/20 04:40:15;;;;;;;12.00;6.90;;;;;;;17.48;100.00;100917.89;105633;1258;61060;-42
2023/05/20 04:42:43;;;;;;;9.10;6.50;;;;;;;17.44;100.00;100916.33;105690;1253;75315;-42
2023/05/20 04:45:11;;;;;;;21.10;7.00;;;;;;;17.46;100.00;100916.23;105674;1254;66103;-42
2023/05/20 04:47:40;;;;;;;14.40;7.20;;;;;;;17.61;100.00;100918.43;105665;1254;73848;-42
2023/05/20 04:50:12;;;;;;;16.80;8.50;;;;;;;17.86;100.00;100917.24;105664;1260;61514;-43
2023/05/20 04:52:41;;;;;;;24.80;8.00;;;;;;;18.11;100.00;100920.25;105486;1259;63010;-44
2023/05/20 04:55:10;;;;;;;22.70;7.10;;;;;;;18.35;100.00;100930.22;105406;1260;76320;-43
2023/05/20 04:57:40;;;;;;;26.30;6.60;;;;;;;18.61;100.00;100943.58;105658;1260;67805;-42
2023/05/20 05:00:11;;;;;;;11.10;6.60;;;;;;;18.88;100.00;100952.19;105675;1254;73671;-42
2023/05/20 05:02:39;;;;;;;13.00;5.90;;;;;;;19.11;100.00;100972.34;105607;1260;62880;-44
2023/05/20 05:05:07;;;;;;;18.60;6.30;;;;;;;19.38;100.00;100985.77;105612;1253;62646;-42
2023/05/20 05:07:34;;;;;;;23.20;7.30;;;;;;;19.59;100.00;101007.90;105702;1258;76136;-42
2023/05/20 05:10:02;;;;;;;24.90;7.80;;;;;;;19.75;100.00;101024.80;105663;1258;66883;-43
2023/05/20 05:12:30;;;;;;;10.70;7.10;;;;;;;19.91;100.00;101041.78;105646;1254;75755;-41
2023/05/20 05:14:58;;;;;;;15.40;6.00;;;;;;;20.08;100.00;101059.52;105696;1255;63026;-42
2023/05/20 05:17:27;;;;;;;10.40;5.90;;;;;;;20.23;100.00;101079.31;105658;1258;61863;-43
2023/05/20 05:19:56;;;;;;;19.10;6.30;;;;;;;20.32;100.00;101097.60;105720;1257;76650;-43
2023/05/20 05:22:23;;;;;;;18.60;6.40;;;;;;;20.50;100.00;101103.75;105647;1258;66670;-42
2023/05/20 05:24:51;;;;;;;13.30;6.10;;;;;;;20.77;100.00;101103.98;105668;1253;75181;-42
2023/05/20 05:27:18;;;;;;;16.30;6.60;;;;;;;21.11;100.00;101116.11;105665;1254;63207;-43
2023/05/20 05:29:45;;;;;;;15.90;5.90;;;;;;;21.40;100.00;101134.98;105699;1253;61902;-43
2023/05/20 05:32:12;;;;;;;19.70;6.40;;;;;;;21.63;100.00;101149.02;105706;1255;76247;-43
2023/05/20 05:34:39;;;;;;;13.60;5.90;;;;;;;21.83;100.00;101156.05;105660;1260;68052;-41
2023/05/20 05:37:06;;;;;;;28.50;6.00;;;;;;;21.98;100.00;101163.33;105652;1254;75169;-48
2023/05/20 05:39:36;;;;;;;11.60;5.50;;;;;;;22.06;100.00;101172.86;105418;1253;63355;-44
2023/05/20 05:42:04;;;;;;;9.80;5.50;;;;;;;22.13;100.00;101194.80;105606;1253;63085;-47
2023/05/20 05:44:32;;;;;;;12.90;5.70;;;;;;;22.17;96.89;101190.39;105700;1258;76587;-44
2023/05/20 05:46:59;;;;;;;13.00;5.50;;;;;;;22.09;97.79;101205.73;105689;1258;68084;-43
2023/05/20 05:49:26;;;;;;;15.90;5.90;;;;;;;22.24;90.74;101196.28;105630;1258;75205;-42
2023/05/20 05:51:53;;;;;;;22.20;5.70;;;;;;;22.38;90.58;101200.81;105643;1256;61813;-43
2023/05/20 05:54:20;;;;;;;13.00;6.30;;;;;;;22.59;86.88;101196.83;105617;1253;62361;-43
2023/05/20 05:56:50;;;;;;;14.70;5.80;;;;;;;22.58;77.44;101190.41;105692;1253;75572;-43
2023/05/20 05:59:17;;;;;;;8.60;5.40;;;;;;;22.48;77.94;101204.16;105669;1260;66666;-44
2023/05/20 06:01:45;;;;;;;21.00;6.00;;;;;;;22.54;78.74;101206.45;105634;1254;75360;-44
2023/05/20 06:04:13;;;;;;;14.30;5.80;;;;;;;22.50;80.45;101207.70;105677;1254;63117;-41
2023/05/20 06:06:40;;;;;;;11.40;5.80;;;;;;;22.61;79.45;101208.36;105611;1253;62462;-44
2023/05/20 06:09:08;;;;;;;20.20;5.60;;;;;;;22.76;74.51;101182.52;105671;1253;75589;-44
2023/05/20 06:11:35;;;;;;;15.10;5.90;;;;;;;22.79;70.42;101179.70;105592;1253;67887;-43
2023/05/20 06:14:02;;;;;;;14.90;5.90;;;;;;;22.87;70.64;101189.08;105619;1253;74875;-43
2023/05/20 06:16:29;;;;;;;16.30;5.80;;;;;;;23.08;70.59;101191.90;105678;1256;63488;-43
2023/05/20 06:18:58;;;;;;;12.40;5.50;;;;;;;23.18;68.08;101181.42;105671;1253;63334;-44
2023/05/20 06:21:31;;;;;;;22.20;6.10;;;;;;;23.30;67.59;101186.59;105709;1258;76500;-43
2023/05/20 06:23:58;;;;;;;12.00;5.60;;;;;;;23.41;65.35;101164.45;105631;1260;66760;-43
2023/05/20 06:26:26;;;;;;;7.30;5.50;;;;;;;23.28;65.96;101192.12;105631;1256;73763;-43
2023/05/20 06:28:53;;;;;;;14.90;7.20;;;;;;;23.12;66.71;101199.05;105579;1253;62769;-44
2023/05/20 06:31:21;;;;;;;8.40;5.40;;;;;;;23.00;67.04;101199.92;105501;1254;60709;-43
2023/05/20 06:33:50;;;;;;;13.20;6.10;;;;;;;22.81;68.29;101209.52;105678;1260;74911;-42
2023/05/20 06:36:17;;;;;;;15.10;6.20;;;;;;;22.76;70.22;101211.16;105654;1253;68174;-42
2023/05/20 06:38:44;;;;;;;11.40;6.40;;;;;;;22.89;68.45;101194.07;105631;1256;74432;-42
2023/05/20 06:41:13;;;;;;;7.20;5.90;;;;;;;22.97;66.79;101177.23;105664;1253;60880;-43
2023/05/20 06:43:40;;;;;;;14.80;5.70;;;;;;;22.99;65.52;101169.58;105638;1260;61598;-43
2023/05/20 06:46:43;;;;;;;11.70;6.20;;;;;;;22.84;66.98;101202.83;105188;1264;76851;-43
2023/05/20 06:49:14;;;;;;;8.70;6.30;;;;;;;22.93;66.71;101193.67;105673;1253;66437;-43
2023/05/20 06:51:42;;;;;;;12.90;6.80;;;;;;;23.05;64.71;101164.27;105640;1256;74385;-42
2023/05/20 06:54:10;;;;;;;10.70;5.40;;;;;;;23.23;64.76;101177.11;105637;1253;62724;-42
2023/05/20 06:56:37;;;;;;;17.00;6.10;;;;;;;23.24;63.80;101165.98;105669;1259;62018;-43
2023/05/20 06:59:04;;;;;;;13.10;6.60;;;;;;;23.23;63.87;101175.52;105709;1258;76551;-43
2023/05/20 07:01:33;;;;;;;12.30;6.00;;;;;;;23.34;64.91;101195.85;105654;1253;66203;-43
2023/05/20 07:04:01;;;;;;;14.10;5.80;;;;;;;23.47;63.81;101169.33;105675;1253;75040;-43
2023/05/20 07:06:30;;;;;;;17.40;5.70;;;;;;;23.62;64.37;101180.59;105635;1261;61906;-43
2023/05/20 07:08:57;;;;;;;17.70;5.50;;;;;;;23.66;62.17;101140.84;105680;1258;62041;-43
2023/05/20 07:11:25;;;;;;;9.70;4.70;;;;;;;23.71;60.58;101121.18;105752;1257;76713;-43
2023/05/20 07:13:53;;;;;;;10.40;5.90;;;;;;;23.91;60.49;101134.52;105617;1253;66442;-42
2023/05/20 07:16:22;;;;;;;15.80;6.20;;;;;;;24.06;59.90;101126.73;105673;1256;74203;-44
2023/05/20 07:18:52;;;;;;;12.20;5.70;;;;;;;24.06;59.85;101134.67;105676;1259;63235;-44
2023/05/20 07:21:20;;;;;;;14.30;5.80;;;;;;;24.13;60.05;101150.63;105621;1261;61903;-44
2023/05/20 07:24:05;;;;;;;12.00;5.60;;;;;;;24.18;59.41;101138.67;105622;1259;76373;-43
2023/05/20 07:26:35;;;;;;;15.60;5.60;;;;;;;24.30;59.03;101123.42;105652;1253;68293;-43
2023/05/20 07:29:03;;;;;;;16.50;6.20;;;;;;;24.43;59.07;101131.77;105653;1255;74884;-44
2023/05/20 07:31:30;;;;;;;8.60;5.50;;;;;;;24.43;58.75;101128.18;105680;1256;62112;-43
2023/05/20 07:33:58;;;;;;;10.60;5.90;;;;;;;24.41;57.86;101105.75;105680;1255;62466;-43
2023/05/20 07:36:26;;;;;;;13.50;5.80;;;;;;;24.50;57.16;101088.96;105597;1253;76281;-44
2023/05/20 07:38:54;;;;;;;12.10;7.10;;;;;;;24.60;57.31;101106.64;105374;1253;67918;-44
2023/05/20 07:41:32;;;;;;;15.60;5.40;;;;;;;24.73;55.85;101072.77;105586;1256;73748;-44
2023/05/20 07:44:03;;;;;;;14.00;5.60;;;;;;;24.76;55.67;101078.93;105731;1255;63395;-43
2023/05/20 07:46:32;;;;;;;26.90;6.10;;;;;;;24.94;55.47;101080.89;105635;1256;61472;-44
2023/05/20 07:48:59;;;;;;;15.40;6.00;;;;;;;25.18;55.07;101066.48;105666;1260;74619;-43
2023/05/20 07:51:26;;;;;;;102.60;9.80;;;;;;;25.29;53.39;101001.48;105654;1253;67663;-43
2023/05/20 07:53:53;;;;;;;20.50;9.70;;;;;;;25.42;52.41;100970.89;105619;1256;74098;-43
2023/05/20 07:56:20;;;;;;;9.90;5.20;;;;;;;25.65;51.52;100944.33;105638;1256;62794;-44
2023/05/20 07:58:52;;;;;;;13.10;5.50;;;;;;;25.85;51.04;100930.45;105719;1258;62090;-44
2023/05/20 08:01:20;;;;;;;9.60;5.10;;;;;;;26.00;50.56;100921.13;105732;1254;75097;-43
2023/05/20 08:03:48;;;;;;;16.80;6.30;;;;;;;26.20;48.57;100785.13;105665;1253;66544;-47
2023/05/20 08:06:19;;;;;;;14.90;5.40;;;;;;;26.16;48.66;100831.38;105447;1256;74779;-43
2023/05/20 08:08:47;;;;;;;17.10;8.70;;;;;;;26.22;48.48;100836.95;105484;1256;61098;-45
2023/05/20 08:11:20;;;;;;;12.00;6.90;;;;;;;26.39;47.55;100783.08;105660;1258;63031;-45
2023/05/20 08:13:47;;;;;;;21.70;6.00;;;;;;;26.44;47.76;100813.52;105657;1258;76615;-43
2023/05/20 08:16:14;;;;;;;13.70;5.40;;;;;;;26.48;48.48;100879.70;105677;1253;68085;-43
2023/05/20 08:18:43;;;;;;;15.50;5.50;;;;;;;26.65;48.35;100883.80;105665;1253;75761;-43
2023/05/20 08:21:12;;;;;;;8.60;5.20;;;;;;;26.87;46.89;100736.77;105645;1254;61192;-43
2023/05/20 08:23:40;;;;;;;11.10;4.90;;;;;;;26.94;46.74;100727.48;105681;1258;60950;-43
2023/05/20 08:26:07;;;;;;;10.80;5.50;;;;;;;27.11;46.38;100721.52;105616;1253;75224;-43
2023/05/20 08:28:38;;;;;;;11.60;5.50;;;;;;;27.30;46.30;100713.73;105667;1253;68561;-46
2023/05/20 08:31:42;;;;;;;12.40;5.00;;;;;;;27.42;45.85;100677.42;102414;1295;602426;-45
2023/05/20 08:40:19;;;;;;;9.10;4.60;;;;;;;27.65;43.95;100542.34;102771;1302;600509;-43
2023/05/20 08:42:47;;;;;;;12.80;5.60;;;;;;;27.60;43.11;100446.80;104946;1266;61319;-43
2023/05/20 08:45:17;;;;;;;19.20;4.50;;;;;;;27.50;42.54;100414.18;104848;1266;61408;-44
2023/05/20 08:47:44;;;;;;;15.60;4.80;;;;;;;27.53;42.97;100469.35;104827;1264;74856;-43
2023/05/20 08:50:13;;;;;;;10.60;4.90;;;;;;;27.79;42.81;100454.31;104864;1265;66998;-44
2023/05/20 08:52:45;;;;;;;9.80;4.20;;;;;;;27.98;42.01;100405.60;104845;1267;74389;-45
2023/05/20 08:55:25;;;;;;;9.40;4.90;;;;;;;28.01;41.50;100336.67;105000;1268;60751;-43
2023/05/20 08:57:53;;;;;;;9.10;4.70;;;;;;;28.03;40.67;100235.95;105175;1263;62693;-44
2023/05/20 09:00:22;;;;;;;26.30;4.50;;;;;;;28.12;41.05;100288.29;105133;1262;74870;-44
2023/05/20 09:02:50;;;;;;;13.10;4.60;;;;;;;28.27;40.45;100260.67;105208;1267;67801;-43
2023/05/20 09:05:18;;;;;;;13.80;4.60;;;;;;;28.29;40.74;100255.55;105200;1264;74601;-44
2023/05/20 09:07:46;;;;;;;17.40;4.30;;;;;;;28.36;39.76;100154.56;105573;1256;63334;-44
2023/05/20 09:10:13;;;;;;;10.40;4.60;;;;;;;28.17;40.46;100258.56;105558;1261;62051;-44
2023/05/20 09:12:40;;;;;;;20.20;4.60;;;;;;;28.38;40.84;100301.48;105563;1258;74591;-44
2023/05/20 09:15:08;;;;;;;11.30;5.10;;;;;;;28.62;40.07;100225.31;105539;1257;67626;-44
2023/05/20 09:17:36;;;;;;;11.80;4.40;;;;;;;28.74;39.82;100180.66;105560;1261;75141;-44
2023/05/20 09:20:07;;;;;;;6.50;3.90;;;;;;;28.82;38.90;100070.04;105593;1257;61855;-45
2023/05/20 09:22:35;;;;;;;7.00;4.10;;;;;;;28.72;38.95;100057.52;105564;1261;61328;-43
2023/05/20 09:25:04;;;;;;;8.80;3.80;;;;;;;28.71;37.93;99983.67;105578;1260;73926;-44
2023/05/20 09:29:31;;;;;;;;;;;;;;;28.66;38.97;100087.96;102631;1294;600230;-44
2023/05/20 09:32:01;;;;;;;11.90;4.20;;;;;;;28.92;38.60;100066.91;104762;1273;62622;-44
2023/05/20 09:34:28;;;;;;;9.00;4.00;;;;;;;28.88;38.31;100020.23;104817;1273;61801;-43
2023/05/20 09:36:56;;;;;;;12.70;4.00;;;;;;;28.75;38.50;100055.48;104675;1269;74702;-43
2023/05/20 09:39:24;;;;;;;14.50;4.00;;;;;;;28.75;38.63;100098.24;104870;1270;68459;-43
2023/05/20 09:41:55;;;;;;;15.40;4.50;;;;;;;28.75;37.97;100018.55;104851;1266;74888;-44
2023/05/20 09:44:23;;;;;;;5.70;4.00;;;;;;;28.64;38.92;100127.67;105019;1266;60315;-44
2023/05/20 09:46:51;;;;;;;11.60;4.50;;;;;;;28.85;39.19;100165.17;105214;1267;61929;-44
2023/05/20 09:49:19;;;;;;;6.80;4.50;;;;;;;29.04;38.91;100124.27;105201;1267;75102;-44
2023/05/20 09:51:46;;;;;;;13.20;4.10;;;;;;;29.17;38.52;100111.98;105235;1263;67433;-44
2023/05/20 09:54:13;;;;;;;11.00;4.20;;;;;;;29.20;37.73;99983.58;105084;1268;75912;-44
2023/05/20 09:56:41;;;;;;;10.70;5.00;;;;;;;29.19;37.65;99979.55;105127;1264;61708;-44
2023/05/20 09:59:08;;;;;;;17.90;5.10;;;;;;;29.10;37.65;99996.32;105130;1263;62759;-44
2023/05/20 10:01:35;;;;;;;16.40;5.80;;;;;;;28.83;38.72;100124.73;105019;1269;74354;-44
2023/05/20 10:04:04;;;;;;;11.60;5.30;;;;;;;28.58;39.22;100208.35;105440;1263;66681;-44
2023/05/20 10:06:56;;;;;;;8.50;3.90;;;;;;;28.38;39.82;100294.36;105254;1263;73916;-43
2023/05/20 10:09:48;;;;;;;43.30;5.80;;;;;;;28.44;39.14;100218.73;105015;1260;61546;-44
2023/05/20 10:12:36;;;;;;;11.40;4.70;;;;;;;28.87;38.86;100194.98;105218;1259;62906;-44
2023/05/20 10:15:42;;;;;;;13.60;5.40;;;;;;;29.21;38.93;100156.64;105390;1259;74859;-45
2023/05/20 10:18:33;;;;;;;13.50;4.90;;;;;;;29.49;38.67;100146.92;105030;1259;66847;-45
2023/05/20 10:21:01;;;;;;;13.60;5.40;;;;;;;29.42;37.39;99962.10;105272;1259;74223;-45
2023/05/20 10:23:29;;;;;;;13.90;4.60;;;;;;;29.27;37.63;99986.57;105279;1258;62459;-44
2023/05/20 10:25:58;;;;;;;14.10;4.70;;;;;;;29.26;37.77;100031.38;105409;1258;63023;-45
2023/05/20 10:28:35;;;;;;;16.80;5.10;;;;;;;29.25;38.04;100063.36;105227;1257;74347;-44
2023/05/20 10:31:13;;;;;;;16.60;5.10;;;;;;;29.08;37.94;100038.66;105420;1263;66771;-46
2023/05/20 10:33:44;;;;;;;12.20;5.20;;;;;;;28.74;37.97;100053.08;105503;1257;73438;-43
2023/05/20 10:36:22;;;;;;;8.90;5.10;;;;;;;28.42;38.26;100123.67;105519;1262;62103;-44
2023/05/20 10:38:58;;;;;;;10.20;3.70;;;;;;;28.15;38.74;100185.15;105519;1262;61578;-44
2023/05/20 10:41:29;;;;;;;10.70;4.10;;;;;;;27.92;39.36;100246.77;105246;1263;75217;-44
2023/05/20 10:44:03;;;;;;;10.60;4.30;;;;;;;27.68;38.88;100225.77;105526;1258;67388;-44
2023/05/20 10:46:31;;;;;;;20.80;5.20;;;;;;;27.58;38.71;100220.73;105477;1258;73420;-44
2023/05/20 10:49:21;;;;;;;15.70;5.40;;;;;;;27.48;39.65;100299.55;105475;1262;62150;-44
2023/05/20 10:51:54;;;;;;;12.30;5.30;;;;;;;27.48;39.73;100349.67;105476;1257;63458;-44
2023/05/20 10:54:22;;;;;;;9.70;4.60;;;;;;;27.47;39.02;100267.06;105502;1262;75274;-44
2023/05/20 10:56:51;;;;;;;63.80;7.20;;;;;;;27.40;38.73;100232.47;105648;1254;67394;-44
2023/05/20 10:59:20;;;;;;;12.40;5.20;;;;;;;27.33;38.34;100183.16;105637;1258;75435;-44
2023/05/20 11:01:47;;;;;;;16.20;5.20;;;;;;;27.23;38.26;100183.52;105653;1258;62985;-44
2023/05/20 11:04:14;;;;;;;15.50;4.10;;;;;;;27.31;37.84;100150.57;105560;1260;61795;-44
2023/05/20 11:06:50;;;;;;;7.80;3.70;;;;;;;27.48;37.31;100069.96;105625;1254;74565;-44
2023/05/20 11:09:17;;;;;;;8.10;3.40;;;;;;;27.63;37.89;100112.84;105651;1254;67634;-45
2023/05/20 11:11:44;;;;;;;18.20;3.90;;;;;;;27.79;37.62;100107.61;105632;1258;75408;-43
2023/05/20 11:14:15;;;;;;;14.30;3.40;;;;;;;27.94;37.93;100127.10;105616;1260;62908;-44
2023/05/20 11:16:42;;;;;;;9.80;3.30;;;;;;;28.06;38.03;100152.37;105635;1260;61920;-43
2023/05/20 11:19:15;;;;;;;11.50;3.60;;;;;;;28.10;37.59;100110.05;105626;1254;74812;-44
2023/05/20 11:21:44;;;;;;;4.40;3.10;;;;;;;27.91;37.78;100129.16;105666;1254;67371;-45
2023/05/20 11:24:12;;;;;;;32.00;5.10;;;;;;;27.52;39.17;100289.27;105653;1256;74131;-44